CheckWX is a tool to help pilots better visualize weather data.  It is not intended as a substitute for an official pre-flight weather briefing.

23:01:56 UTC

KPMU METAR
Panola County Airport
Batesville, Mississippi, USA
Current

27 mins ago

KPMU 192235Z AUTO 31008KT -DZ SCT020 SCT033 SCT040 09/07 A2981 RMK AO2
Observed
Apr-19 @ 22:35 UTC
Wind
  • 310° at 8 KTS
Visibility
Conditions
Light Drizzle
Cloud Levels
  • Scattered at 2,000' AGL
  • Scattered at 3,300' AGL
  • Scattered at 4,000' AGL
Temperature
C / 48°F
Dewpoint
C / 45°F
Humidity
87%
Altimeter
29.81" Hg
Pressure
1009.52 hPa
Previous

47 mins ago

KPMU 192215Z AUTO 32010G19KT -RA CLR 09/07 A2980 RMK AO2
Observed
Apr-19 @ 22:15 UTC
Wind
  • 320° at 10 KTS
  • Gusting to 19 KTS
Visibility
Conditions
Light Rain
Cloud Levels
  • Clear skies
Temperature
C / 48°F
Dewpoint
C / 45°F
Humidity
87%
Altimeter
29.8" Hg
Pressure
1009.12 hPa
Previous

1 hour ago

KPMU 192155Z AUTO 33013G19KT -RA SCT027 SCT035 SCT043 09/07 A2979 RMK AO2 P0001
Observed
Apr-19 @ 21:55 UTC
Wind
  • 330° at 13 KTS
  • Gusting to 19 KTS
Visibility
Conditions
Light Rain
Cloud Levels
  • Scattered at 2,700' AGL
  • Scattered at 3,500' AGL
  • Scattered at 4,300' AGL
Temperature
C / 48°F
Dewpoint
C / 45°F
Humidity
87%
Altimeter
29.79" Hg
Pressure
1008.82 hPa
Current Rain
0.01"